Time;durP1;ratioP1;P1;durP2;ratioP2;P2;SDS_P1;SDS_P2;PMS_P1;PMS_P2;Temp;Humidity;BMP_temperature;BMP_pressure;BME280_temperature;BME280_humidity;BME280_pressure;Samples;Min_cycle;Max_cycle;Signal;HPM_P1;HPM_P2
2023/10/21 00:00:52;;;;;;;11.75;4.63;;;;;;;11.38;100.00;98367.72;5092460;28;20536;-78
2023/10/21 00:03:19;;;;;;;5.53;4.38;;;;;;;11.36;100.00;98368.22;5090461;28;20055;-78
2023/10/21 00:05:46;;;;;;;10.82;4.47;;;;;;;11.34;100.00;98360.00;5091109;28;20452;-78
2023/10/21 00:08:12;;;;;;;9.75;4.97;;;;;;;11.33;100.00;98363.16;5091494;28;20533;-78
2023/10/21 00:10:39;;;;;;;6.75;4.85;;;;;;;11.32;100.00;98367.06;5074574;28;20320;-78
2023/10/21 00:13:06;;;;;;;4.78;4.30;;;;;;;11.29;100.00;98365.38;5095660;28;20532;-78
2023/10/21 00:15:34;;;;;;;7.38;4.65;;;;;;;11.27;100.00;98365.88;5095318;28;20048;-78
2023/10/21 00:18:01;;;;;;;9.30;4.90;;;;;;;11.24;100.00;98366.16;5095708;28;20052;-78
2023/10/21 00:20:28;;;;;;;5.22;4.53;;;;;;;11.19;100.00;98367.69;5094756;28;20095;-78
2023/10/21 00:22:54;;;;;;;6.40;4.57;;;;;;;11.18;100.00;98386.81;5095036;28;20048;-78
2023/10/21 00:25:21;;;;;;;5.70;4.63;;;;;;;11.16;100.00;98390.00;5094893;28;20075;-78
2023/10/21 00:27:48;;;;;;;4.72;4.32;;;;;;;11.11;100.00;98393.44;5094054;28;20048;-77
2023/10/21 00:30:15;;;;;;;8.50;4.68;;;;;;;11.10;100.00;98397.31;5095110;28;20059;-78
2023/10/21 00:32:41;;;;;;;8.38;4.72;;;;;;;11.09;100.00;98411.13;5095051;28;20044;-77
2023/10/21 00:35:08;;;;;;;5.03;4.43;;;;;;;11.11;100.00;98417.38;5093386;28;20468;-78
2023/10/21 00:37:35;;;;;;;5.65;4.28;;;;;;;11.12;100.00;98418.84;5093367;28;20052;-77
2023/10/21 00:40:03;;;;;;;7.63;4.88;;;;;;;11.13;100.00;98416.88;5094568;28;20482;-77
2023/10/21 00:42:30;;;;;;;6.22;5.00;;;;;;;11.13;100.00;98422.22;5093168;28;20531;-77
2023/10/21 00:44:56;;;;;;;8.57;5.00;;;;;;;11.14;100.00;98413.00;5077191;28;20055;-78
2023/10/21 00:47:23;;;;;;;6.22;4.78;;;;;;;11.14;100.00;98413.72;5093326;28;20053;-78
2023/10/21 00:49:52;;;;;;;9.18;5.15;;;;;;;11.14;100.00;98418.34;5093824;28;20044;-78
2023/10/21 00:52:18;;;;;;;4.95;4.50;;;;;;;11.12;100.00;98424.16;5092912;28;20476;-77
2023/10/21 00:54:45;;;;;;;5.35;4.35;;;;;;;11.12;100.00;98428.75;5093557;28;20072;-77
2023/10/21 00:57:12;;;;;;;6.38;4.45;;;;;;;11.12;100.00;98426.09;5093469;28;20072;-77
2023/10/21 00:59:40;;;;;;;7.30;4.28;;;;;;;11.12;100.00;98434.81;5093385;28;20052;-77
2023/10/21 01:02:12;;;;;;;5.95;4.25;;;;;;;11.11;100.00;98441.34;5093138;28;20048;-77
2023/10/21 01:04:39;;;;;;;5.93;4.28;;;;;;;11.10;100.00;98439.91;5093505;28;20052;-77
2023/10/21 01:07:14;;;;;;;7.63;4.32;;;;;;;11.09;100.00;98443.06;5092761;28;20497;-77
2023/10/21 01:09:40;;;;;;;6.45;4.50;;;;;;;11.08;100.00;98454.94;5094705;28;20454;-77
2023/10/21 01:12:07;;;;;;;12.93;4.65;;;;;;;11.07;100.00;98456.16;5093530;28;20044;-78
2023/10/21 01:14:34;;;;;;;9.75;4.22;;;;;;;11.07;100.00;98459.53;5094514;28;20069;-78
2023/10/21 01:17:01;;;;;;;5.97;4.63;;;;;;;11.07;100.00;98464.88;5095014;28;20044;-78
2023/10/21 01:19:30;;;;;;;7.95;4.28;;;;;;;11.08;100.00;98465.59;5094424;28;20068;-78
2023/10/21 01:21:56;;;;;;;6.65;4.15;;;;;;;11.07;100.00;98467.53;5093792;28;20045;-78
2023/10/21 01:24:23;;;;;;;5.57;4.65;;;;;;;11.08;100.00;98468.25;5092466;28;20048;-78
2023/10/21 01:26:50;;;;;;;5.15;4.60;;;;;;;11.07;100.00;98474.78;5094647;28;20048;-78
2023/10/21 01:29:16;;;;;;;6.22;4.93;;;;;;;11.05;100.00;98483.28;5092914;28;20433;-78
2023/10/21 01:31:43;;;;;;;5.05;4.57;;;;;;;11.07;100.00;98477.44;5094310;28;20048;-77
2023/10/21 01:34:09;;;;;;;4.82;4.32;;;;;;;11.08;100.00;98484.94;5093877;28;20045;-77
2023/10/21 01:36:37;;;;;;;6.85;4.15;;;;;;;11.07;100.00;98474.78;5093868;28;20044;-77
2023/10/21 01:39:05;;;;;;;7.53;5.13;;;;;;;11.06;100.00;98478.66;5094460;28;20567;-77
2023/10/21 01:41:31;;;;;;;8.55;4.32;;;;;;;11.05;100.00;98482.56;5094219;28;20122;-77
2023/10/21 01:43:58;;;;;;;5.15;4.18;;;;;;;11.03;100.00;98475.78;5093920;28;20056;-78
2023/10/21 01:46:25;;;;;;;4.82;4.32;;;;;;;11.05;100.00;98493.19;5093414;28;20463;-77
2023/10/21 01:48:51;;;;;;;7.47;4.40;;;;;;;11.03;100.00;98485.72;5075529;28;20069;-78
2023/10/21 01:51:18;;;;;;;4.25;3.95;;;;;;;11.02;100.00;98487.66;5092365;28;20076;-78
2023/10/21 01:53:45;;;;;;;5.72;4.30;;;;;;;11.02;100.00;98484.97;5093001;28;20217;-78
2023/10/21 01:56:12;;;;;;;7.18;4.07;;;;;;;11.04;100.00;98489.81;5092232;28;20052;-78
2023/10/21 01:58:39;;;;;;;8.18;4.10;;;;;;;11.04;100.00;98492.47;5092238;28;20437;-78
2023/10/21 02:01:11;;;;;;;5.85;4.05;;;;;;;11.06;100.00;98500.69;5092370;28;20122;-77
2023/10/21 02:03:39;;;;;;;5.18;4.35;;;;;;;11.06;100.00;98505.28;5091504;28;20431;-78
2023/10/21 02:06:06;;;;;;;8.93;4.40;;;;;;;11.06;100.00;98502.63;5093791;28;20044;-78
2023/10/21 02:08:34;;;;;;;8.65;4.55;;;;;;;11.05;100.00;98504.56;5093566;28;20044;-78
2023/10/21 02:11:02;;;;;;;8.15;4.30;;;;;;;11.05;100.00;98507.22;5092577;28;20044;-78
2023/10/21 02:13:28;;;;;;;4.68;4.00;;;;;;;11.05;100.00;98507.22;5091795;28;20483;-78
2023/10/21 02:15:55;;;;;;;7.32;4.25;;;;;;;11.05;100.00;98512.56;5092757;28;20044;-78
2023/10/21 02:18:21;;;;;;;9.07;4.65;;;;;;;11.03;100.00;98513.06;5091396;28;20472;-78
2023/10/21 02:20:49;;;;;;;8.43;4.80;;;;;;;11.03;100.00;98510.38;5092724;28;20557;-78
2023/10/21 02:23:15;;;;;;;7.53;4.32;;;;;;;11.02;100.00;98511.59;5093373;28;20048;-78
2023/10/21 02:25:42;;;;;;;9.35;4.63;;;;;;;11.02;100.00;98521.53;5091728;28;20111;-78
2023/10/21 02:28:10;;;;;;;5.63;4.35;;;;;;;11.01;100.00;98522.75;5091775;28;20178;-78
2023/10/21 02:30:36;;;;;;;11.05;4.68;;;;;;;10.99;100.00;98533.91;5093330;28;20506;-78
2023/10/21 02:33:03;;;;;;;6.80;5.47;;;;;;;10.98;100.00;98537.78;5093136;28;20044;-78
2023/10/21 02:35:33;;;;;;;4.65;4.35;;;;;;;10.97;100.00;98541.66;5090289;28;20049;-78
2023/10/21 02:38:00;;;;;;;8.18;4.32;;;;;;;10.96;100.00;98537.53;5091456;28;20049;-78
2023/10/21 02:40:26;;;;;;;5.20;4.40;;;;;;;10.95;100.00;98538.03;5093042;28;20037;-78
2023/10/21 02:42:53;;;;;;;5.25;4.75;;;;;;;10.93;100.00;98538.53;5075276;28;20044;-78
2023/10/21 02:45:20;;;;;;;9.90;4.57;;;;;;;10.92;100.00;98539.03;5091474;28;20047;-78
2023/10/21 02:47:46;;;;;;;5.30;4.43;;;;;;;10.93;100.00;98551.13;5091571;28;20037;-78
2023/10/21 02:50:13;;;;;;;5.20;4.55;;;;;;;10.91;100.00;98558.88;5074742;28;20048;-78
2023/10/21 02:52:40;;;;;;;8.55;5.15;;;;;;;10.90;100.00;98560.81;5091099;28;20044;-78
2023/10/21 02:55:06;;;;;;;9.30;4.70;;;;;;;10.89;100.00;98566.63;5092491;28;20057;-78
2023/10/21 02:57:34;;;;;;;9.38;4.88;;;;;;;10.88;100.00;98570.50;5092989;28;20048;-78
2023/10/21 03:00:01;;;;;;;6.28;4.80;;;;;;;10.87;100.00;98574.38;5091889;28;20044;-78
2023/10/21 03:02:28;;;;;;;5.13;4.63;;;;;;;10.86;100.00;98578.97;5092071;28;20036;-78
2023/10/21 03:04:55;;;;;;;5.40;4.40;;;;;;;10.85;100.00;98576.81;5093152;28;20484;-77
2023/10/21 03:07:21;;;;;;;9.55;4.63;;;;;;;10.84;100.00;98578.75;5092425;28;20040;-77
2023/10/21 03:09:48;;;;;;;6.70;4.50;;;;;;;10.83;100.00;98574.63;5074642;28;20567;-77
2023/10/21 03:12:14;;;;;;;8.48;4.90;;;;;;;10.81;100.00;98577.06;5091214;28;20374;-77
2023/10/21 03:14:41;;;;;;;9.25;4.75;;;;;;;10.79;100.00;98574.19;5074613;28;20048;-77
2023/10/21 03:17:08;;;;;;;7.53;4.80;;;;;;;10.79;100.00;98571.53;5090963;28;20509;-77
2023/10/21 03:19:34;;;;;;;5.47;5.00;;;;;;;10.78;100.00;98567.44;5091546;28;20417;-77
2023/10/21 03:22:01;;;;;;;11.45;5.13;;;;;;;10.78;100.00;98580.75;5091864;28;20041;-77
2023/10/21 03:24:28;;;;;;;5.00;4.50;;;;;;;10.78;100.00;98582.69;5073880;28;20057;-77
2023/10/21 03:26:54;;;;;;;5.22;4.72;;;;;;;10.76;100.00;98583.16;5091433;28;20502;-77
2023/10/21 03:29:21;;;;;;;7.15;4.55;;;;;;;10.75;100.00;98586.31;5091112;28;20045;-77
2023/10/21 03:31:48;;;;;;;8.90;5.03;;;;;;;10.77;100.00;98592.59;5090768;28;20060;-77
2023/10/21 03:34:14;;;;;;;6.03;4.60;;;;;;;10.77;100.00;98605.19;5074020;28;20106;-78
2023/10/21 03:36:41;;;;;;;6.53;4.45;;;;;;;10.75;100.00;98597.69;5092573;28;20114;-77
2023/10/21 03:39:08;;;;;;;6.60;4.53;;;;;;;10.75;100.00;98605.66;5090812;28;20040;-77
2023/10/21 03:41:34;;;;;;;11.38;5.03;;;;;;;10.75;100.00;98611.00;5090738;28;20511;-78
2023/10/21 03:44:01;;;;;;;6.47;4.82;;;;;;;10.75;100.00;98610.28;5091340;28;20055;-78
2023/10/21 03:46:28;;;;;;;5.32;4.85;;;;;;;10.76;100.00;98615.09;5093769;28;20037;-77
2023/10/21 03:48:55;;;;;;;9.98;4.75;;;;;;;10.79;100.00;98621.38;5077548;28;20134;-77
2023/10/21 03:51:21;;;;;;;8.95;4.75;;;;;;;10.81;100.00;98622.31;5094437;28;20153;-77
2023/10/21 03:53:48;;;;;;;11.75;4.68;;;;;;;10.84;100.00;98621.34;5096090;28;20481;-77
2023/10/21 03:56:15;;;;;;;6.03;4.45;;;;;;;10.85;100.00;98625.44;5095364;28;20055;-76
2023/10/21 03:58:42;;;;;;;13.02;4.97;;;;;;;10.87;100.00;98622.28;5094318;28;20132;-76
2023/10/21 04:01:08;;;;;;;8.32;5.03;;;;;;;10.85;100.00;98636.09;5095050;28;20045;-78
2023/10/21 04:03:35;;;;;;;7.68;4.95;;;;;;;10.86;100.00;98634.16;5094105;28;20052;-77
2023/10/21 04:06:03;;;;;;;7.20;4.65;;;;;;;10.83;100.00;98638.50;5095118;28;20050;-78
2023/10/21 04:08:30;;;;;;;7.63;4.53;;;;;;;10.84;100.00;98637.31;5094916;28;20048;-77
2023/10/21 04:10:57;;;;;;;10.75;5.47;;;;;;;10.83;100.00;98637.78;5095787;28;20079;-78
2023/10/21 04:13:23;;;;;;;6.22;4.63;;;;;;;10.82;100.00;98652.31;5093431;28;20052;-78
2023/10/21 04:15:50;;;;;;;6.05;4.82;;;;;;;10.82;100.00;98652.31;5093518;28;20049;-78
2023/10/21 04:18:19;;;;;;;10.20;5.15;;;;;;;10.82;100.00;98658.38;5094120;28;20493;-78
2023/10/21 04:20:46;;;;;;;9.18;4.78;;;;;;;10.80;100.00;98660.78;5094540;28;20102;-78
2023/10/21 04:23:13;;;;;;;8.45;4.78;;;;;;;10.80;100.00;98663.44;5094046;28;20055;-78
2023/10/21 04:25:40;;;;;;;11.98;4.72;;;;;;;10.78;100.00;98676.56;5077025;28;20513;-78
2023/10/21 04:28:07;;;;;;;9.32;4.97;;;;;;;10.76;100.00;98670.25;5095472;28;20048;-78
2023/10/21 04:30:35;;;;;;;10.73;4.95;;;;;;;10.73;100.00;98671.97;5076074;28;20056;-78
2023/10/21 04:33:02;;;;;;;6.20;4.57;;;;;;;10.74;100.00;98678.00;5095380;28;20045;-78
2023/10/21 04:35:29;;;;;;;10.40;4.93;;;;;;;10.74;100.00;98678.75;5093491;28;20048;-77
2023/10/21 04:37:56;;;;;;;7.53;4.68;;;;;;;10.73;100.00;98685.28;5093947;28;20059;-77
2023/10/21 04:40:23;;;;;;;5.40;4.60;;;;;;;10.72;100.00;98688.41;5093401;28;20123;-78
2023/10/21 04:42:49;;;;;;;7.35;5.00;;;;;;;10.70;100.00;98699.56;5095265;28;20124;-77
2023/10/21 04:45:17;;;;;;;5.88;4.40;;;;;;;10.71;100.00;98705.59;5093718;28;20051;-77
2023/10/21 04:47:43;;;;;;;6.82;4.90;;;;;;;10.69;100.00;98701.50;5093423;28;20135;-78
2023/10/21 04:50:10;;;;;;;9.30;4.70;;;;;;;10.69;100.00;98716.72;5095155;28;20378;-78
2023/10/21 04:52:38;;;;;;;5.70;4.28;;;;;;;10.69;100.00;98716.72;5094958;28;20055;-78
2023/10/21 04:55:05;;;;;;;6.55;4.80;;;;;;;10.68;100.00;98715.28;5094173;28;20084;-77
2023/10/21 04:57:31;;;;;;;9.50;4.63;;;;;;;10.67;100.00;98721.81;5093474;28;20044;-78
2023/10/21 04:59:59;;;;;;;9.02;5.07;;;;;;;10.67;100.00;98721.81;5093444;28;20051;-78
2023/10/21 05:02:26;;;;;;;12.80;4.85;;;;;;;10.65;100.00;98730.28;5076318;28;20086;-78
2023/10/21 05:04:53;;;;;;;9.82;4.20;;;;;;;10.65;100.00;98732.94;5093677;28;20139;-78
2023/10/21 05:07:19;;;;;;;7.30;4.70;;;;;;;10.68;100.00;98741.91;5094407;28;20045;-78
2023/10/21 05:09:46;;;;;;;9.50;5.10;;;;;;;10.69;100.00;98749.38;5094938;28;20167;-78
2023/10/21 05:12:13;;;;;;;16.15;4.68;;;;;;;10.72;100.00;98750.34;5092126;28;20539;-78
2023/10/21 05:14:39;;;;;;;8.93;4.28;;;;;;;10.76;100.00;98753.50;5094437;28;20033;-78
2023/10/21 05:17:06;;;;;;;9.45;4.28;;;;;;;10.80;100.00;98759.25;5094943;28;20044;-78
2023/10/21 05:19:32;;;;;;;7.97;4.38;;;;;;;10.84;100.00;98767.72;5094392;28;20045;-78
2023/10/21 05:21:59;;;;;;;4.93;4.50;;;;;;;10.88;100.00;98767.47;5093156;28;20106;-78
2023/10/21 05:24:27;;;;;;;9.23;4.28;;;;;;;10.90;100.00;98773.75;5093876;28;20591;-78
2023/10/21 05:26:54;;;;;;;4.78;3.83;;;;;;;10.94;100.00;98778.84;5092426;28;20383;-78
2023/10/21 05:29:20;;;;;;;6.13;4.55;;;;;;;10.93;100.00;98782.72;5075418;28;20049;-78
2023/10/21 05:31:47;;;;;;;7.60;4.03;;;;;;;10.93;100.00;98783.44;5093496;28;20173;-78
2023/10/21 05:34:18;;;;;;;9.95;4.57;;;;;;;10.91;100.00;98785.84;5092750;28;20053;-78
2023/10/21 05:36:46;;;;;;;6.15;4.20;;;;;;;10.90;100.00;98791.66;5093459;28;20501;-77
2023/10/21 05:39:12;;;;;;;5.93;3.92;;;;;;;10.86;100.00;98794.59;5092649;28;20051;-78
2023/10/21 05:41:42;;;;;;;10.85;4.50;;;;;;;10.87;100.00;98792.66;5093398;28;20045;-78
2023/10/21 05:44:09;;;;;;;8.98;4.80;;;;;;;10.86;100.00;98794.59;5093681;28;20514;-78
2023/10/21 05:46:36;;;;;;;7.93;4.47;;;;;;;10.86;100.00;98802.56;5094079;28;20041;-78
2023/10/21 05:49:04;;;;;;;13.77;4.70;;;;;;;10.87;100.00;98797.97;5092715;28;20055;-78
2023/10/21 05:51:31;;;;;;;7.10;4.50;;;;;;;10.85;100.00;98809.09;5092107;28;20106;-78
2023/10/21 05:53:58;;;;;;;8.40;4.50;;;;;;;10.85;100.00;98803.78;5092601;28;20045;-78
2023/10/21 05:56:25;;;;;;;7.85;4.70;;;;;;;10.84;100.00;98818.28;5092713;28;20206;-78
2023/10/21 05:58:51;;;;;;;9.13;4.78;;;;;;;10.82;100.00;98820.00;5092670;28;20049;-78
2023/10/21 06:01:18;;;;;;;6.35;4.18;;;;;;;10.83;100.00;98829.44;5093569;28;20102;-78
2023/10/21 06:03:45;;;;;;;7.93;4.25;;;;;;;10.80;100.00;98825.81;5095243;28;20520;-78
2023/10/21 06:06:12;;;;;;;13.30;4.65;;;;;;;10.79;100.00;98839.63;5093444;28;20420;-78
2023/10/21 06:08:39;;;;;;;5.13;4.15;;;;;;;10.77;100.00;98837.44;5093108;28;20050;-78
2023/10/21 06:11:08;;;;;;;7.38;4.30;;;;;;;10.75;100.00;98839.88;5093600;28;20537;-77
2023/10/21 06:13:34;;;;;;;8.57;4.65;;;;;;;10.75;100.00;98839.13;5092935;28;20484;-78
2023/10/21 06:16:01;;;;;;;9.95;3.95;;;;;;;10.74;100.00;98856.31;5092690;28;20048;-77
2023/10/21 06:18:28;;;;;;;4.63;4.22;;;;;;;10.74;100.00;98864.31;5091433;28;20040;-78
2023/10/21 06:20:55;;;;;;;8.30;4.35;;;;;;;10.72;100.00;98867.44;5093307;28;20441;-77
2023/10/21 06:23:22;;;;;;;6.72;4.50;;;;;;;10.71;100.00;98876.63;5093206;28;20052;-77
2023/10/21 06:25:49;;;;;;;13.07;5.35;;;;;;;10.73;100.00;98881.47;5091692;28;20511;-78
2023/10/21 06:28:15;;;;;;;8.48;4.88;;;;;;;10.77;100.00;98885.34;5092069;28;20041;-77
2023/10/21 06:30:42;;;;;;;8.48;4.78;;;;;;;10.80;100.00;98888.94;5091931;28;20052;-78
2023/10/21 06:33:09;;;;;;;7.10;4.47;;;;;;;10.82;100.00;98889.91;5075464;28;20521;-78
2023/10/21 06:35:38;;;;;;;9.95;4.55;;;;;;;10.85;100.00;98890.88;5092346;28;20588;-76
2023/10/21 06:38:08;;;;;;;14.60;4.65;;;;;;;10.87;100.00;98889.19;5093342;28;20047;-77
2023/10/21 06:40:35;;;;;;;9.73;4.93;;;;;;;10.93;100.00;98902.50;5091442;28;20053;-78
2023/10/21 06:43:05;;;;;;;12.07;4.68;;;;;;;10.97;100.00;98895.72;5075682;28;20131;-78
2023/10/21 06:45:32;;;;;;;8.77;4.45;;;;;;;11.01;100.00;98906.88;5092014;28;20048;-76
2023/10/21 06:48:01;;;;;;;8.63;4.57;;;;;;;11.05;100.00;98908.56;5092966;28;20043;-77
2023/10/21 06:50:29;;;;;;;12.23;4.95;;;;;;;11.08;100.00;98910.97;5091392;28;20044;-77
2023/10/21 06:52:56;;;;;;;18.70;4.65;;;;;;;11.12;100.00;98913.41;5092174;28;20119;-76
2023/10/21 06:55:22;;;;;;;5.63;3.95;;;;;;;11.15;100.00;98910.47;5092034;28;20048;-77
2023/10/21 06:57:52;;;;;;;6.53;4.00;;;;;;;11.17;100.00;98918.00;5091713;28;20055;-76
2023/10/21 07:00:18;;;;;;;9.18;4.60;;;;;;;11.18;100.00;98922.81;5091513;28;20044;-77
2023/10/21 07:02:45;;;;;;;7.82;4.57;;;;;;;11.19;100.00;98918.94;5091432;28;20056;-77
2023/10/21 07:05:12;;;;;;;10.05;3.97;;;;;;;11.23;100.00;98927.41;5091676;28;20045;-76
2023/10/21 07:07:41;;;;;;;7.40;3.95;;;;;;;11.27;100.00;98935.88;5091286;28;20040;-77
2023/10/21 07:10:09;;;;;;;5.75;4.00;;;;;;;11.31;100.00;98933.69;5092116;28;20509;-77
2023/10/21 07:12:38;;;;;;;8.05;4.30;;;;;;;11.35;100.00;98941.44;5091255;28;20084;-77
2023/10/21 07:15:07;;;;;;;12.77;4.07;;;;;;;11.39;100.00;98935.84;5092300;28;20525;-77
2023/10/21 07:17:33;;;;;;;7.55;4.07;;;;;;;11.41;100.00;98952.09;5091018;28;20485;-77
2023/10/21 07:20:00;;;;;;;8.45;3.78;;;;;;;11.44;100.00;98946.50;5090889;28;20063;-77
2023/10/21 07:22:27;;;;;;;5.32;3.92;;;;;;;11.48;100.00;98956.91;5090229;28;20526;-77
2023/10/21 07:24:55;;;;;;;7.28;3.42;;;;;;;11.51;100.00;98961.28;5092895;28;20041;-79
2023/10/21 07:27:22;;;;;;;9.65;4.03;;;;;;;11.54;100.00;98966.34;5090680;28;20493;-77
2023/10/21 07:29:49;;;;;;;7.40;4.05;;;;;;;11.56;100.00;98963.19;5090422;28;20114;-79
2023/10/21 07:32:16;;;;;;;14.55;3.95;;;;;;;11.58;100.00;98969.50;5090446;28;20111;-79
2023/10/21 07:34:42;;;;;;;7.18;3.53;;;;;;;11.62;100.00;98972.59;5090835;28;20162;-80
2023/10/21 07:37:09;;;;;;;7.90;3.78;;;;;;;11.65;100.00;98973.56;5090348;28;20132;-79
2023/10/21 07:39:35;;;;;;;9.15;4.10;;;;;;;11.68;100.00;98977.94;5090853;28;20053;-80
2023/10/21 07:42:02;;;;;;;6.93;3.90;;;;;;;11.69;100.00;98980.09;5091095;28;20040;-79
2023/10/21 07:44:29;;;;;;;10.68;3.63;;;;;;;11.72;100.00;98983.00;5091804;28;20572;-79
2023/10/21 07:46:56;;;;;;;7.05;4.18;;;;;;;11.75;100.00;98987.38;5090884;28;20041;-78
2023/10/21 07:49:23;;;;;;;7.15;3.88;;;;;;;11.80;100.00;98986.66;5091588;28;20041;-80
2023/10/21 07:51:50;;;;;;;5.05;3.78;;;;;;;11.85;100.00;98991.25;5092029;28;20045;-81
2023/10/21 07:54:17;;;;;;;9.75;3.55;;;;;;;11.88;100.00;98993.66;5073753;28;20044;-81
2023/10/21 07:56:46;;;;;;;5.00;3.80;;;;;;;11.92;100.00;99001.41;5090255;28;20055;-79
2023/10/21 07:59:16;;;;;;;6.50;3.25;;;;;;;11.95;100.00;99009.16;5074211;28;20133;-79
2023/10/21 08:01:43;;;;;;;6.47;3.80;;;;;;;11.98;100.00;99000.19;5090944;28;20040;-79
2023/10/21 08:04:10;;;;;;;6.78;3.33;;;;;;;12.01;100.00;99012.50;5090398;28;20040;-80
2023/10/21 08:06:37;;;;;;;6.50;3.63;;;;;;;12.03;100.00;99025.34;5089832;28;20048;-80
2023/10/21 08:09:04;;;;;;;4.00;3.20;;;;;;;12.06;100.00;99020.97;5090789;28;20048;-81
2023/10/21 08:11:32;;;;;;;3.70;3.40;;;;;;;12.08;100.00;99024.63;5090182;28;20478;-79
2023/10/21 08:13:58;;;;;;;6.82;3.50;;;;;;;12.11;100.00;99030.91;5092174;28;20493;-78
2023/10/21 08:16:25;;;;;;;5.38;3.08;;;;;;;12.12;100.00;99030.41;5089661;28;20041;-77
2023/10/21 08:18:51;;;;;;;6.13;3.13;;;;;;;12.15;100.00;99040.13;5090118;28;20044;-78
2023/10/21 08:21:18;;;;;;;4.03;2.97;;;;;;;12.17;100.00;99042.28;5088003;28;20442;-77
2023/10/21 08:23:45;;;;;;;4.35;3.22;;;;;;;12.19;100.00;99045.19;5090330;28;20517;-78
2023/10/21 08:26:12;;;;;;;5.60;2.90;;;;;;;12.20;100.00;99052.72;5090004;28;20091;-77
2023/10/21 08:28:39;;;;;;;5.68;2.72;;;;;;;12.22;100.00;99068.22;5086640;28;21387;-77
2023/10/21 08:31:08;;;;;;;2.35;1.95;;;;;;;12.21;100.00;99064.84;5089401;28;20044;-78
2023/10/21 08:33:34;;;;;;;2.15;1.88;;;;;;;12.18;100.00;99073.09;5090596;28;20462;-78
2023/10/21 08:36:01;;;;;;;1.98;1.88;;;;;;;12.14;100.00;99081.34;5092439;28;20478;-78
2023/10/21 08:38:28;;;;;;;2.17;1.90;;;;;;;12.10;100.00;99075.53;5092271;28;20049;-78
2023/10/21 08:40:55;;;;;;;3.78;2.20;;;;;;;12.11;100.00;99095.66;5093183;28;20032;-78
2023/10/21 08:43:22;;;;;;;1.73;1.63;;;;;;;12.18;100.00;99097.09;5092388;28;20497;-78
2023/10/21 08:45:50;;;;;;;2.13;1.80;;;;;;;12.29;100.00;99097.81;5092082;28;20044;-78
2023/10/21 08:48:17;;;;;;;2.38;1.77;;;;;;;12.39;100.00;99108.94;5093976;28;20041;-78
2023/10/21 08:50:49;;;;;;;3.53;1.67;;;;;;;12.44;100.00;99113.50;5092513;28;20144;-78
2023/10/21 08:53:15;;;;;;;2.33;1.58;;;;;;;12.66;100.00;99105.41;5092691;28;20538;-80
2023/10/21 08:55:43;;;;;;;2.55;1.33;;;;;;;12.71;100.00;99119.97;5092650;28;20057;-79
2023/10/21 08:58:10;;;;;;;1.40;1.30;;;;;;;12.73;100.00;99122.13;5093810;28;20036;-78
2023/10/21 09:00:38;;;;;;;1.70;1.60;;;;;;;12.69;100.00;99133.81;5094050;28;20565;-79
2023/10/21 09:03:05;;;;;;;1.30;1.20;;;;;;;12.66;100.00;99136.72;5094016;28;20124;-79
2023/10/21 09:05:34;;;;;;;1.83;1.17;;;;;;;12.67;100.00;99141.56;5093250;28;20510;-79
2023/10/21 09:08:00;;;;;;;1.20;1.10;;;;;;;12.90;100.00;99147.53;5092518;28;20053;-78
2023/10/21 09:10:27;;;;;;;1.70;1.23;;;;;;;12.99;100.00;99143.84;5093358;28;20157;-77
2023/10/21 09:12:54;;;;;;;1.40;1.00;;;;;;;13.09;100.00;99157.66;5093914;28;20624;-78
2023/10/21 09:15:22;;;;;;;1.10;1.10;;;;;;;13.03;100.00;99149.66;5075163;28;20060;-79
2023/10/21 09:17:52;;;;;;;2.03;1.10;;;;;;;12.98;100.00;99161.09;5094217;28;20051;-79
2023/10/21 09:20:19;;;;;;;0.88;0.88;;;;;;;12.92;100.00;99161.13;5092788;28;20040;-79
2023/10/21 09:22:55;;;;;;;0.88;0.75;;;;;;;12.92;100.00;99165.72;5093551;28;20129;-79
2023/10/21 09:25:22;;;;;;;1.30;1.20;;;;;;;12.93;100.00;99170.59;5093659;28;20049;-79
2023/10/21 09:27:54;;;;;;;1.00;0.80;;;;;;;12.91;100.00;99167.69;5093810;28;20409;-79
2023/10/21 09:30:25;;;;;;;;;;;;;;;13.01;100.00;99176.13;5075153;28;20446;-79
2023/10/21 09:33:01;;;;;;;0.82;0.82;;;;;;;12.97;100.00;99179.06;5093445;28;19931;-79
2023/10/21 09:35:30;;;;;;;0.90;0.90;;;;;;;12.99;100.00;99181.97;5093115;28;20072;-79
2023/10/21 09:37:57;;;;;;;0.88;0.80;;;;;;;13.03;100.00;99187.06;5093589;28;20494;-79
2023/10/21 09:40:28;;;;;;;0.73;0.73;;;;;;;13.00;100.00;99188.03;5091257;28;20467;-79
2023/10/21 09:42:56;;;;;;;1.35;0.90;;;;;;;12.97;100.00;99184.41;5093325;28;20056;-79
2023/10/21 09:45:25;;;;;;;2.45;0.90;;;;;;;13.02;100.00;99202.34;5092591;28;20041;-79
2023/10/21 09:47:55;;;;;;;1.00;0.90;;;;;;;13.06;100.00;99199.44;5091655;28;20033;-78
2023/10/21 09:50:24;;;;;;;0.85;0.85;;;;;;;13.07;100.00;99205.50;5092042;28;20135;-80
2023/10/21 09:53:11;;;;;;;1.92;0.90;;;;;;;13.09;100.00;99206.47;5090635;28;20159;-78
2023/10/21 09:55:41;;;;;;;1.15;0.60;;;;;;;13.07;100.00;99206.22;5092770;28;20056;-77
2023/10/21 09:58:08;;;;;;;2.00;0.70;;;;;;;13.07;100.00;99210.84;5092166;28;20508;-78
2023/10/21 10:00:37;;;;;;;3.30;0.93;;;;;;;13.05;100.00;99223.97;5091984;28;20045;-78
2023/10/21 10:03:05;;;;;;;3.35;0.80;;;;;;;13.04;100.00;99231.25;5092785;28;20045;-78
2023/10/21 10:05:33;;;;;;;1.63;0.75;;;;;;;13.07;100.00;99232.94;5092923;28;20483;-78
2023/10/21 10:07:59;;;;;;;1.58;0.93;;;;;;;13.09;100.00;99238.50;5092625;28;20525;-80
2023/10/21 10:10:27;;;;;;;1.30;0.73;;;;;;;13.13;100.00;99244.34;5092477;28;20604;-77
2023/10/21 10:12:59;;;;;;;1.30;0.80;;;;;;;13.12;100.00;99239.47;5092954;28;20045;-77
2023/10/21 10:15:31;;;;;;;1.33;0.90;;;;;;;13.18;100.00;99240.22;5092452;28;20554;-78
2023/10/21 10:18:03;;;;;;;1.45;1.33;;;;;;;13.26;100.00;99241.84;5092684;28;20516;-77
2023/10/21 10:20:31;;;;;;;1.15;0.80;;;;;;;13.33;100.00;99252.03;5092323;28;20045;-76
2023/10/21 10:23:07;;;;;;;1.38;0.90;;;;;;;13.41;100.00;99256.84;5091390;28;20509;-77
2023/10/21 10:25:36;;;;;;;2.05;0.93;;;;;;;13.49;100.00;99250.50;5092629;28;20045;-77
2023/10/21 10:28:05;;;;;;;2.85;1.13;;;;;;;13.60;100.00;99253.09;5091226;28;20053;-76
2023/10/21 10:30:32;;;;;;;1.00;1.00;;;;;;;13.58;100.00;99252.16;5092361;28;20517;-76
2023/10/21 10:33:07;;;;;;;2.20;1.23;;;;;;;13.58;100.00;99255.56;5092143;28;20506;-78
2023/10/21 10:35:37;;;;;;;3.20;2.20;;;;;;;13.61;100.00;99259.88;5092461;28;20044;-78
2023/10/21 10:38:28;;;;;;;6.72;3.75;;;;;;;13.74;100.00;99261.28;5092758;28;20096;-78
2023/10/21 10:41:05;;;;;;;4.35;1.95;;;;;;;13.78;100.00;99267.09;5081617;28;20052;-77
2023/10/21 10:43:34;;;;;;;5.53;3.90;;;;;;;13.85;100.00;99261.94;5092453;28;20133;-78
2023/10/21 10:46:02;;;;;;;3.10;2.55;;;;;;;13.85;100.00;99266.56;5092324;28;20051;-78
2023/10/21 10:48:29;;;;;;;3.00;1.20;;;;;;;13.86;99.26;99258.03;5091899;28;20538;-77
2023/10/21 10:50:57;;;;;;;10.13;5.65;;;;;;;13.90;99.24;99268.47;5091307;28;20502;-77
2023/10/21 10:53:24;;;;;;;9.93;7.82;;;;;;;14.02;100.00;99277.84;5091697;28;20056;-78
2023/10/21 10:55:53;;;;;;;9.82;6.63;;;;;;;14.06;97.95;99272.25;5089506;28;20083;-76
2023/10/21 10:58:21;;;;;;;4.53;2.17;;;;;;;14.12;96.79;99281.69;5091444;28;20045;-76
2023/10/21 11:00:48;;;;;;;4.55;2.55;;;;;;;14.13;96.83;99272.44;5091782;28;20040;-77
2023/10/21 11:03:23;;;;;;;1.88;1.30;;;;;;;14.20;96.93;99279.91;5091838;28;20045;-77
2023/10/21 11:05:51;;;;;;;2.58;1.00;;;;;;;14.38;96.43;99291.22;5092191;28;20044;-77
2023/10/21 11:08:18;;;;;;;2.47;2.28;;;;;;;14.45;94.85;99296.03;5092111;28;20051;-77
2023/10/21 11:10:45;;;;;;;2.35;1.50;;;;;;;14.45;94.43;99283.38;5091869;28;20040;-79
2023/10/21 11:13:12;;;;;;;4.00;1.80;;;;;;;14.48;93.81;99284.31;5091606;28;20635;-76
2023/10/21 11:15:44;;;;;;;3.63;1.00;;;;;;;14.46;91.19;99292.84;5089928;28;20116;-76
2023/10/21 11:18:12;;;;;;;4.57;0.93;;;;;;;14.42;92.46;99299.72;5091222;28;20119;-77
2023/10/21 11:20:49;;;;;;;2.05;0.85;;;;;;;14.45;91.18;99304.06;5091714;28;20094;-77
2023/10/21 11:23:18;;;;;;;1.73;0.77;;;;;;;14.45;90.25;99304.78;5092246;28;20084;-76
2023/10/21 11:25:49;;;;;;;1.42;0.95;;;;;;;14.37;91.86;99317.25;5090365;28;20441;-76